»·PEaware :: N3391T KMRY-KSNA

N3391T :: KMRY-KSNA

FLIGHT INFORMATION

Flight Status: Arrived
Operator: Privately registered:
United States
More flights under this callsign
Pilot: Scott P. (30664)
Aircraft: MCDONNELL-DOUGLAS SKYTRAIN C-47
(DC3)
More flights by this aircraft type
Origin: KMRY Monterey Peninsula
United States
Destination: KSNA John Wayne-Orange Co
United States
More flights between these airports :: More routes between these airports
Route: +MRY5 SNS V137 JEFFY V459 SLI
File this flight plan on PilotEdge
Remarks:
Altitude:
(Current/Filed)
11,000ft
Speed:
(Current/Filed)
147kts
Departed: 12-Aug-20 08:35 AM
Arrived: 12-Aug-20 10:41 AM
Distance/Time
Traveled:
262nm/2:05
Distance/Time
To Go:
Arrived

Flight Plot

Page will automatically refresh every two minutes.

Flight plan parsing failed; only flown route is shown


Map Options




Map Legend


Flown Route
Filed Route
Departure Airport
Arrival Airport
Navaid (VOR, NDB)
Fix

Horizontal Profiles

Position Reports

Time Latitude Longitude Heading Altitude Ground
Speed
12-Aug-20 08:03 36.587914 -121.839420 291 174ft 0kts
12-Aug-20 08:04 36.587914 -121.839420 291 174ft 0kts
12-Aug-20 08:05 36.587915 -121.839421 291 174ft 0kts
12-Aug-20 08:06 36.587915 -121.839421 291 174ft 0kts
12-Aug-20 08:07 36.587915 -121.839421 291 174ft 0kts
12-Aug-20 08:08 36.587915 -121.839421 291 174ft 0kts
12-Aug-20 08:09 36.587915 -121.839421 291 174ft 0kts
12-Aug-20 08:10 36.587915 -121.839421 291 174ft 0kts
12-Aug-20 08:11 36.587915 -121.839421 291 174ft 0kts
12-Aug-20 08:12 36.587915 -121.839421 291 174ft 0kts
12-Aug-20 08:13 36.587915 -121.839421 291 174ft 0kts
12-Aug-20 08:14 36.587915 -121.839421 291 174ft 0kts
12-Aug-20 08:15 36.587915 -121.839421 291 174ft 0kts
12-Aug-20 08:16 36.587915 -121.839421 291 174ft 0kts
12-Aug-20 08:17 36.587915 -121.839421 291 174ft 0kts
12-Aug-20 08:18 36.587915 -121.839421 291 174ft 0kts
12-Aug-20 08:19 36.587915 -121.839421 291 174ft 0kts
12-Aug-20 08:20 36.587681 -121.840148 239 174ft 0kts
12-Aug-20 08:21 36.587681 -121.840148 240 174ft 0kts
12-Aug-20 08:22 36.586870 -121.838326 112 174ft 12kts
12-Aug-20 08:23 36.585674 -121.834809 111 174ft 10kts
12-Aug-20 08:24 36.585369 -121.833540 193 174ft 0kts
12-Aug-20 08:25 36.585309 -121.833572 232 174ft 1kts
12-Aug-20 08:26 36.584852 -121.835568 207 174ft 0kts
12-Aug-20 08:27 36.584837 -121.835578 205 174ft 1kts
12-Aug-20 08:28 36.582738 -121.836074 64 174ft 0kts
12-Aug-20 08:29 36.582738 -121.836073 64 174ft 0kts
12-Aug-20 08:30 36.582738 -121.836074 64 174ft 0kts
12-Aug-20 08:31 36.582738 -121.836074 64 174ft 0kts
12-Aug-20 08:32 36.582831 -121.834901 96 174ft 0kts
12-Aug-20 08:33 36.583744 -121.834839 292 174ft 24kts
12-Aug-20 08:34 36.592004 -121.860507 289 714ft 91kts
12-Aug-20 08:35 36.601456 -121.894400 287 1387ft 109kts
12-Aug-20 08:36 36.614588 -121.922952 341 2214ft 91kts
12-Aug-20 08:37 36.635480 -121.935045 339 2876ft 97kts
12-Aug-20 08:38 36.661813 -121.949038 341 3704ft 109kts
12-Aug-20 08:39 36.683076 -121.935266 55 4634ft 92kts
12-Aug-20 08:40 36.701076 -121.909291 52 5340ft 111kts
12-Aug-20 08:41 36.717225 -121.880502 102 6326ft 94kts
12-Aug-20 08:42 36.713928 -121.843441 105 7087ft 95kts
12-Aug-20 08:43 36.708579 -121.810622 107 8035ft 101kts
12-Aug-20 08:44 36.697572 -121.777991 124 9060ft 104kts
12-Aug-20 08:45 36.678718 -121.768475 245 10047ft 104kts
12-Aug-20 08:46 36.689452 -121.804353 283 11019ft 114kts
12-Aug-20 08:47 36.703311 -121.853138 283 10964ft 166kts
12-Aug-20 08:48 36.736616 -121.843000 63 11477ft 171kts
12-Aug-20 08:49 36.711789 -121.805739 157 11466ft 162kts
12-Aug-20 08:50 36.677398 -121.769567 115 11460ft 178kts
12-Aug-20 08:51 36.654807 -121.714961 126 11460ft 177kts
12-Aug-20 08:52 36.628402 -121.663259 128 11459ft 177kts
12-Aug-20 08:53 36.600430 -121.612727 130 11460ft 176kts
12-Aug-20 08:54 36.572100 -121.562875 130 11460ft 176kts
12-Aug-20 08:55 36.543293 -121.513103 131 11460ft 176kts
12-Aug-20 08:56 36.514378 -121.464046 131 11459ft 176kts
12-Aug-20 08:57 36.485029 -121.415138 131 11458ft 176kts
12-Aug-20 08:58 36.455401 -121.366645 132 11458ft 176kts
12-Aug-20 08:59 36.425302 -121.318269 133 11456ft 175kts
12-Aug-20 09:00 36.397215 -121.268693 121 11458ft 179kts
12-Aug-20 09:01 36.372790 -121.214494 127 11456ft 179kts
12-Aug-20 09:02 36.345453 -121.162741 129 11458ft 179kts
12-Aug-20 09:03 36.317163 -121.111897 129 11459ft 180kts
12-Aug-20 09:04 36.288253 -121.061044 128 11462ft 180kts
12-Aug-20 09:05 36.258843 -121.010276 128 11464ft 181kts
12-Aug-20 09:06 36.229106 -120.959895 128 11466ft 181kts
12-Aug-20 09:07 36.199016 -120.909834 128 11466ft 181kts
12-Aug-20 09:08 36.168522 -120.859987 129 11466ft 181kts
12-Aug-20 09:09 36.137760 -120.810574 129 11466ft 181kts
12-Aug-20 09:10 36.106687 -120.761528 130 11466ft 181kts
12-Aug-20 09:11 36.077428 -120.711093 115 11470ft 182kts
12-Aug-20 09:12 36.052887 -120.656427 123 11466ft 181kts
12-Aug-20 09:13 36.025051 -120.604273 126 11466ft 181kts
12-Aug-20 09:14 35.996180 -120.553137 126 11466ft 181kts
12-Aug-20 09:15 35.966859 -120.502310 127 11466ft 181kts
12-Aug-20 09:16 35.937183 -120.451791 127 11465ft 181kts
12-Aug-20 09:17 35.907203 -120.401669 128 11461ft 181kts
12-Aug-20 09:18 35.876797 -120.351728 128 11463ft 181kts
12-Aug-20 09:19 35.845895 -120.301866 129 11465ft 181kts
12-Aug-20 09:20 35.814878 -120.252720 130 11466ft 181kts
12-Aug-20 09:21 35.783539 -120.203960 130 11463ft 181kts
12-Aug-20 09:22 35.751857 -120.155545 131 11461ft 181kts
12-Aug-20 09:23 35.726638 -120.101846 121 11460ft 182kts
12-Aug-20 09:24 35.699676 -120.049031 125 11462ft 181kts
12-Aug-20 09:25 35.671074 -119.997824 126 11466ft 181kts
12-Aug-20 09:26 35.642043 -119.946887 127 11459ft 181kts
12-Aug-20 09:27 35.612702 -119.896338 127 11452ft 181kts
12-Aug-20 09:28 35.582985 -119.845992 127 11444ft 181kts
12-Aug-20 09:29 35.552998 -119.795956 128 11436ft 181kts
12-Aug-20 09:30 35.522859 -119.746275 128 11430ft 181kts
12-Aug-20 09:31 35.492539 -119.696832 128 11430ft 181kts
12-Aug-20 09:32 35.462069 -119.647727 129 11430ft 180kts
12-Aug-20 09:33 35.431379 -119.598865 129 11430ft 180kts
12-Aug-20 09:34 35.400606 -119.550118 129 11430ft 180kts
12-Aug-20 09:35 35.369629 -119.501449 129 11430ft 180kts
12-Aug-20 09:37 35.338586 -119.453114 129 11430ft 180kts
12-Aug-20 09:38 35.307250 -119.404765 130 11430ft 180kts
12-Aug-20 09:39 35.275609 -119.356957 139 11420ft 180kts
12-Aug-20 09:40 35.232185 -119.327786 151 11429ft 177kts
12-Aug-20 09:41 35.193880 -119.289987 138 11429ft 179kts
12-Aug-20 09:42 35.157895 -119.247988 138 11429ft 179kts
12-Aug-20 09:43 35.121345 -119.206350 139 11429ft 179kts
12-Aug-20 09:44 35.084517 -119.165147 139 11429ft 179kts
12-Aug-20 09:45 35.047646 -119.124293 139 11429ft 179kts
12-Aug-20 09:46 35.009675 -119.082705 140 11163ft 190kts
12-Aug-20 09:47 34.969358 -119.039255 141 10798ft 194kts
12-Aug-20 09:48 34.928521 -118.995846 142 10453ft 194kts
12-Aug-20 09:49 34.887412 -118.952764 143 10113ft 195kts
12-Aug-20 09:50 34.846579 -118.905014 140 9324ft 210kts
12-Aug-20 09:50 34.811556 -118.864751 140 9012ft 199kts
12-Aug-20 09:52 34.766936 -118.811802 139 9054ft 187kts
12-Aug-20 09:53 34.719623 -118.800602 180 9068ft 175kts
12-Aug-20 09:53 34.678816 -118.797572 180 9028ft 177kts
12-Aug-20 09:55 34.622092 -118.783465 146 8944ft 188kts
12-Aug-20 09:56 34.574787 -118.765732 177 8906ft 180kts
12-Aug-20 09:56 34.533383 -118.759835 177 8978ft 176kts
12-Aug-20 09:57 34.484201 -118.753176 177 8964ft 178kts
12-Aug-20 09:59 34.436872 -118.714879 139 8969ft 187kts
12-Aug-20 09:59 34.405176 -118.678543 141 8974ft 187kts
12-Aug-20 10:00 34.366268 -118.636641 142 9053ft 182kts
12-Aug-20 10:01 34.329756 -118.598055 142 9437ft 174kts
12-Aug-20 10:02 34.292687 -118.559745 142 9458ft 173kts
12-Aug-20 10:03 34.255809 -118.522105 142 9463ft 173kts
12-Aug-20 10:04 34.218674 -118.484587 141 9463ft 174kts
12-Aug-20 10:05 34.181983 -118.446088 146 9462ft 176kts
12-Aug-20 10:06 34.135857 -118.426348 164 9467ft 178kts
12-Aug-20 10:07 34.090004 -118.407794 164 9464ft 165kts
12-Aug-20 10:08 34.055699 -118.384115 129 9467ft 166kts
12-Aug-20 10:09 34.026211 -118.343351 137 9463ft 163kts
12-Aug-20 10:10 33.994823 -118.303652 138 9462ft 163kts
12-Aug-20 10:11 33.963114 -118.264598 138 9460ft 162kts
12-Aug-20 10:12 33.931172 -118.225682 138 9459ft 162kts
12-Aug-20 10:13 33.899182 -118.186927 138 9458ft 162kts
12-Aug-20 10:14 33.867020 -118.148532 139 9459ft 162kts
12-Aug-20 10:15 33.834869 -118.110220 139 9460ft 162kts
12-Aug-20 10:16 33.802830 -118.072000 139 9461ft 161kts
12-Aug-20 10:17 33.769868 -118.036265 148 9458ft 158kts
12-Aug-20 10:18 33.739855 -117.996533 137 9461ft 160kts
12-Aug-20 10:19 33.709199 -117.957902 138 9459ft 160kts
12-Aug-20 10:20 33.677968 -117.919459 138 9469ft 159kts
12-Aug-20 10:21 33.644417 -117.878639 138 8816ft 186kts
12-Aug-20 10:22 33.606937 -117.833122 137 8013ft 194kts
12-Aug-20 10:23 33.569500 -117.787747 137 7215ft 189kts
12-Aug-20 10:24 33.532426 -117.742926 137 6425ft 189kts
12-Aug-20 10:25 33.495362 -117.698196 136 5648ft 189kts
12-Aug-20 10:26 33.458059 -117.653244 135 4881ft 190kts
12-Aug-20 10:27 33.420880 -117.608475 134 4129ft 189kts
12-Aug-20 10:28 33.387370 -117.604070 277 4189ft 142kts
12-Aug-20 10:29 33.411414 -117.640608 308 4238ft 136kts
12-Aug-20 10:30 33.435655 -117.676515 308 4242ft 138kts
12-Aug-20 10:31 33.457715 -117.709728 306 4249ft 140kts
12-Aug-20 10:32 33.482903 -117.746861 304 4455ft 152kts
12-Aug-20 10:33 33.506163 -117.792377 295 4453ft 164kts
12-Aug-20 10:34 33.537849 -117.827070 358 4483ft 176kts
12-Aug-20 10:35 33.586024 -117.838843 335 4007ft 170kts
12-Aug-20 10:36 33.623038 -117.857998 341 2224ft 117kts
12-Aug-20 10:37 33.652386 -117.859092 29 1451ft 93kts
12-Aug-20 10:38 33.674788 -117.844041 354 1265ft 85kts
12-Aug-20 10:39 33.682241 -117.864585 211 108ft 75kts
12-Aug-20 10:40 33.674360 -117.868430 137 64ft 0kts
12-Aug-20 10:41 33.673431 -117.867053 179 64ft 11kts
12-Aug-20 10:42 33.672266 -117.867254 204 64ft 0kts

Navigation Log

Ident Type
Flight plan parsing failed, navigation log unavailable